createdAt,value
2019-03-12T00:02:17.022Z,7.80
2019-03-12T00:04:48.802Z,7.75
2019-03-12T00:07:20.605Z,7.59
2019-03-12T00:09:53.817Z,7.53
2019-03-12T00:12:25.929Z,7.49
2019-03-12T00:14:57.747Z,7.42
2019-03-12T00:17:29.431Z,7.37
2019-03-12T00:20:01.045Z,7.35
2019-03-12T00:22:34.653Z,7.42
2019-03-12T00:25:06.571Z,7.23
2019-03-12T00:27:38.345Z,7.15
2019-03-12T00:30:10.325Z,7.17
2019-03-12T00:32:42.050Z,7.10
2019-03-12T00:35:13.806Z,7.09
2019-03-12T00:37:45.450Z,7.07
2019-03-12T00:40:17.183Z,7.08
2019-03-12T00:42:48.780Z,7.07
2019-03-12T00:45:20.449Z,7.14
2019-03-12T00:47:52.154Z,7.12
2019-03-12T00:50:23.691Z,7.06
2019-03-12T00:52:55.291Z,6.95
2019-03-12T00:55:27.009Z,6.93
2019-03-12T00:57:58.691Z,7.02
2019-03-12T01:00:30.513Z,6.93
2019-03-12T01:03:02.271Z,6.95
2019-03-12T01:05:34.067Z,6.85
2019-03-12T01:08:05.801Z,6.93
2019-03-12T01:10:37.451Z,7.00
2019-03-12T01:13:21.612Z,6.92
2019-03-12T01:15:54.556Z,6.92
2019-03-12T01:18:26.415Z,6.79
2019-03-12T01:20:58.107Z,6.82
2019-03-12T01:23:30.041Z,6.69
2019-03-12T01:26:01.754Z,6.72
2019-03-12T01:28:33.446Z,6.65
2019-03-12T01:31:05.268Z,6.70
2019-03-12T01:33:36.896Z,6.71
2019-03-12T01:36:08.625Z,6.80
2019-03-12T01:38:40.293Z,6.79
2019-03-12T01:41:12.030Z,6.71
2019-03-12T01:43:43.844Z,6.57
2019-03-12T01:46:17.969Z,6.54
2019-03-12T01:48:49.733Z,6.46
2019-03-12T01:51:21.252Z,6.51
2019-03-12T01:53:52.878Z,6.44
2019-03-12T01:56:24.572Z,6.44
2019-03-12T01:58:57.861Z,6.34
2019-03-12T02:01:29.654Z,6.34
2019-03-12T02:04:01.364Z,6.22
2019-03-12T02:06:34.314Z,6.18
2019-03-12T02:09:09.119Z,6.07
2019-03-12T02:11:40.861Z,6.05
2019-03-12T02:14:29.648Z,6.06
2019-03-12T02:17:01.330Z,6.14
2019-03-12T02:19:33.085Z,5.97
2019-03-12T02:22:04.938Z,5.71
2019-03-12T02:24:36.783Z,5.67
2019-03-12T02:27:08.492Z,5.61
2019-03-12T02:29:40.410Z,5.54
2019-03-12T02:32:12.103Z,5.36
2019-03-12T02:34:43.926Z,5.34
2019-03-12T02:37:15.799Z,5.34
2019-03-12T02:39:47.879Z,5.39
2019-03-12T02:42:20.404Z,5.34
2019-03-12T02:44:52.232Z,5.14
2019-03-12T02:47:23.981Z,5.20
2019-03-12T02:49:55.666Z,5.24
2019-03-12T02:52:27.522Z,5.24
2019-03-12T02:54:59.182Z,5.20
2019-03-12T02:57:31.389Z,5.21
2019-03-12T03:00:03.103Z,5.30
2019-03-12T03:02:35.095Z,5.31
2019-03-12T03:05:07.040Z,5.19
2019-03-12T03:07:51.087Z,5.08
2019-03-12T03:10:23.214Z,4.99
2019-03-12T03:12:54.917Z,4.93
2019-03-12T03:15:29.795Z,4.97
2019-03-12T03:18:01.862Z,4.93
2019-03-12T03:20:33.761Z,4.81
2019-03-12T03:23:05.390Z,4.78
2019-03-12T03:25:39.244Z,4.80
2019-03-12T03:28:11.037Z,4.79
2019-03-12T03:30:42.713Z,4.68
2019-03-12T03:33:14.598Z,4.60
2019-03-12T03:35:46.420Z,4.57
2019-03-12T03:38:18.092Z,4.46
2019-03-12T03:40:49.887Z,4.33
2019-03-12T03:43:21.644Z,4.46
2019-03-12T03:45:54.844Z,4.46
2019-03-12T03:48:26.626Z,4.38
2019-03-12T03:50:58.335Z,4.33
2019-03-12T03:53:29.984Z,4.23
2019-03-12T03:56:01.764Z,4.22
2019-03-12T03:58:33.613Z,4.21
2019-03-12T04:01:05.343Z,4.27
2019-03-12T04:03:37.046Z,4.27
2019-03-12T04:06:08.896Z,4.27
2019-03-12T04:08:42.233Z,4.18
2019-03-12T04:11:14.013Z,4.24
2019-03-12T04:13:45.789Z,4.24
2019-03-12T04:16:17.750Z,4.27
2019-03-12T04:18:49.753Z,4.17
2019-03-12T04:21:21.675Z,4.13
2019-03-12T04:23:56.157Z,4.12
2019-03-12T04:26:28.835Z,4.04
2019-03-12T04:29:00.678Z,3.74
2019-03-12T04:31:32.538Z,3.70
2019-03-12T04:34:22.459Z,3.63
2019-03-12T04:36:54.627Z,3.58
2019-03-12T04:39:26.519Z,3.43
2019-03-12T04:41:58.344Z,3.44
2019-03-12T04:44:30.272Z,3.39
2019-03-12T04:47:02.127Z,3.46
2019-03-12T04:49:33.974Z,3.28
2019-03-12T04:52:05.722Z,3.27
2019-03-12T04:54:37.614Z,3.35
2019-03-12T04:57:09.716Z,3.37
2019-03-12T04:59:41.626Z,3.34
2019-03-12T05:02:13.316Z,3.41
2019-03-12T05:04:45.408Z,3.35
2019-03-12T05:07:17.860Z,3.30
2019-03-12T05:09:49.911Z,3.18
2019-03-12T05:12:21.765Z,3.25
2019-03-12T05:14:53.640Z,3.10
2019-03-12T05:17:30.978Z,3.18
2019-03-12T05:20:03.277Z,3.16
2019-03-12T05:22:35.227Z,3.13
2019-03-12T05:25:10.304Z,3.11
2019-03-12T05:27:42.568Z,3.09
2019-03-12T05:30:16.572Z,3.06
2019-03-12T05:32:48.476Z,3.00
2019-03-12T05:35:20.752Z,3.00
2019-03-12T05:37:53.378Z,2.94
2019-03-12T05:40:25.782Z,2.75
2019-03-12T05:42:57.675Z,2.73
2019-03-12T05:45:29.912Z,2.83
2019-03-12T05:48:01.712Z,2.85
2019-03-12T05:50:33.457Z,2.83
2019-03-12T05:53:15.373Z,2.91
2019-03-12T05:55:47.101Z,2.91
2019-03-12T05:58:18.795Z,2.89
2019-03-12T06:00:50.670Z,2.98
2019-03-12T06:03:22.498Z,2.95
2019-03-12T06:05:54.375Z,2.93
2019-03-12T06:08:26.302Z,2.92
2019-03-12T06:10:58.227Z,2.95
2019-03-12T06:13:29.940Z,2.98
2019-03-12T06:16:01.888Z,2.86
2019-03-12T06:18:33.595Z,2.85
2019-03-12T06:21:05.407Z,2.75
2019-03-12T06:23:39.263Z,2.74
2019-03-12T06:26:11.148Z,2.77
2019-03-12T06:28:44.151Z,2.78
2019-03-12T06:31:46.589Z,2.77
2019-03-12T06:34:27.082Z,2.81
2019-03-12T06:37:14.361Z,2.86
2019-03-12T06:40:04.264Z,2.88
2019-03-12T06:42:49.383Z,2.89
2019-03-12T06:45:40.548Z,2.96
2019-03-12T06:48:40.191Z,2.92
2019-03-12T06:51:27.839Z,3.03
2019-03-12T06:54:20.098Z,3.05
2019-03-12T06:57:16.170Z,2.97
2019-03-12T07:00:11.546Z,3.00
2019-03-12T07:03:10.563Z,3.03
2019-03-12T07:05:54.061Z,3.01
2019-03-12T07:08:43.676Z,3.07
2019-03-12T07:11:37.205Z,3.06
2019-03-12T07:14:17.549Z,3.07
2019-03-12T07:17:15.344Z,2.94
2019-03-12T07:20:04.839Z,2.99
2019-03-12T07:23:08.643Z,3.04
2019-03-12T07:26:02.683Z,3.12
2019-03-12T07:28:50.777Z,3.09
2019-03-12T07:32:02.901Z,3.06
2019-03-12T07:34:55.602Z,3.03
2019-03-12T07:37:45.478Z,3.03
2019-03-12T07:40:37.836Z,2.92
2019-03-12T07:43:35.066Z,2.92
2019-03-12T07:46:33.918Z,2.94
2019-03-12T07:49:30.081Z,3.03
2019-03-12T07:52:21.589Z,2.98
2019-03-12T07:55:23.561Z,3.10
2019-03-12T07:58:15.918Z,3.16
2019-03-12T08:01:09.717Z,3.07
2019-03-12T08:04:17.078Z,2.97
2019-03-12T08:07:03.843Z,2.96
2019-03-12T08:09:56.549Z,2.85
2019-03-12T08:12:41.209Z,2.84
2019-03-12T08:15:35.289Z,2.79
2019-03-12T08:18:28.163Z,2.77
2019-03-12T08:21:23.150Z,2.66
2019-03-12T08:24:13.969Z,2.67
2019-03-12T08:27:01.180Z,2.62
2019-03-12T08:30:00.680Z,2.64
2019-03-12T08:32:55.646Z,2.65
2019-03-12T08:36:01.806Z,2.66
2019-03-12T08:38:46.578Z,2.70
2019-03-12T08:41:36.177Z,2.74
2019-03-12T08:44:26.756Z,2.73
2019-03-12T08:47:07.148Z,2.78
2019-03-12T08:49:56.894Z,2.87
2019-03-12T08:53:00.202Z,2.96
2019-03-12T08:56:01.933Z,2.92
2019-03-12T08:59:03.732Z,3.02
2019-03-12T09:02:07.749Z,2.98
2019-03-12T09:05:04.985Z,3.01
2019-03-12T09:07:52.387Z,3.03
2019-03-12T09:10:47.128Z,3.00
2019-03-12T09:13:38.393Z,3.05
2019-03-12T09:16:17.590Z,3.11
2019-03-12T09:19:16.706Z,3.09
2019-03-12T09:22:02.698Z,3.02
2019-03-12T09:24:53.447Z,3.12
2019-03-12T09:27:47.758Z,3.17
2019-03-12T09:30:39.823Z,3.24
2019-03-12T09:33:44.987Z,3.24
2019-03-12T09:36:39.534Z,3.28
2019-03-12T09:39:33.583Z,3.36
2019-03-12T09:42:33.913Z,3.31
2019-03-12T09:45:38.128Z,3.29
2019-03-12T09:48:26.721Z,3.35
2019-03-12T09:51:08.584Z,3.34
2019-03-12T09:54:05.203Z,3.30
2019-03-12T09:56:55.754Z,3.23
2019-03-12T09:59:47.773Z,3.28
2019-03-12T10:02:40.625Z,3.29
2019-03-12T10:05:31.223Z,3.33
2019-03-12T10:08:24.490Z,3.35
2019-03-12T10:11:01.691Z,3.34
2019-03-12T10:13:54.561Z,3.32
2019-03-12T10:16:54.720Z,3.33
2019-03-12T10:19:39.038Z,3.40
2019-03-12T10:22:25.820Z,3.36
2019-03-12T10:25:17.108Z,3.33
2019-03-12T10:28:01.158Z,3.30
2019-03-12T10:30:50.898Z,3.31
2019-03-12T10:33:58.659Z,3.33
2019-03-12T10:36:55.001Z,3.42
2019-03-12T10:39:56.701Z,3.44
2019-03-12T10:42:39.771Z,3.37
2019-03-12T10:45:20.650Z,3.35
2019-03-12T10:47:55.599Z,3.35
2019-03-12T10:50:32.091Z,3.35
2019-03-12T10:53:07.088Z,3.33
2019-03-12T10:55:41.300Z,3.26
2019-03-12T10:58:16.462Z,3.22
2019-03-12T11:00:50.251Z,3.20
2019-03-12T11:03:25.024Z,3.25
2019-03-12T11:05:59.408Z,3.16
2019-03-12T11:08:34.041Z,3.14
2019-03-12T11:11:08.163Z,3.22
2019-03-12T11:13:42.612Z,3.23
2019-03-12T11:16:16.264Z,3.23
2019-03-12T11:18:51.455Z,3.26
2019-03-12T11:21:25.493Z,3.17
2019-03-12T11:23:58.020Z,3.18
2019-03-12T11:26:32.000Z,3.24
2019-03-12T11:29:07.540Z,3.31
2019-03-12T11:31:42.882Z,3.40
2019-03-12T11:34:17.106Z,3.34
2019-03-12T11:36:51.259Z,3.37
2019-03-12T11:39:25.981Z,3.43
2019-03-12T11:42:00.282Z,3.34
2019-03-12T11:44:35.172Z,3.41
2019-03-12T11:47:09.074Z,3.32
2019-03-12T11:49:43.436Z,3.23
2019-03-12T11:52:18.121Z,3.25
2019-03-12T11:54:52.838Z,3.23
2019-03-12T11:57:27.294Z,3.23
2019-03-12T12:00:01.911Z,3.27
2019-03-12T12:02:35.922Z,3.23
2019-03-12T12:05:09.420Z,3.24
2019-03-12T12:07:42.613Z,3.24
2019-03-12T12:10:18.202Z,3.30
2019-03-12T12:12:52.877Z,3.42
2019-03-12T12:15:27.061Z,3.45
2019-03-12T12:18:01.980Z,3.46
2019-03-12T12:20:36.045Z,3.38
2019-03-12T12:23:10.548Z,3.40
2019-03-12T12:25:42.970Z,3.38
2019-03-12T12:28:15.344Z,3.44
2019-03-12T12:30:48.280Z,3.49
2019-03-12T12:33:20.698Z,3.48
2019-03-12T12:35:54.399Z,3.54
2019-03-12T12:38:28.472Z,3.62
2019-03-12T12:41:02.501Z,3.72
2019-03-12T12:43:34.890Z,3.85
2019-03-12T12:46:07.393Z,3.94
2019-03-12T12:48:39.718Z,3.98
2019-03-12T12:51:13.501Z,3.96
2019-03-12T12:53:47.851Z,3.97
2019-03-12T12:56:20.185Z,3.85
2019-03-12T12:58:53.021Z,3.84
2019-03-12T13:01:25.767Z,3.83
2019-03-12T13:03:57.867Z,3.86
2019-03-12T13:06:30.100Z,4.03
2019-03-12T13:09:02.466Z,4.12
2019-03-12T13:11:36.304Z,4.16
2019-03-12T13:14:08.736Z,4.37
2019-03-12T13:16:43.054Z,4.37
2019-03-12T13:19:16.974Z,4.37
2019-03-12T13:21:49.386Z,4.33
2019-03-12T13:24:21.854Z,4.30
2019-03-12T13:26:54.176Z,4.22
2019-03-12T13:29:26.983Z,4.31
2019-03-12T13:32:12.663Z,4.18
2019-03-12T13:34:35.375Z,4.22
2019-03-12T13:37:09.095Z,4.14
2019-03-12T13:39:41.425Z,4.20
2019-03-12T13:42:13.766Z,4.08
2019-03-12T13:44:48.917Z,4.01
2019-03-12T13:47:21.721Z,4.04
2019-03-12T13:49:55.546Z,4.08
2019-03-12T13:52:27.782Z,4.05
2019-03-12T13:55:01.968Z,3.96
2019-03-12T13:57:35.335Z,3.98
2019-03-12T14:00:11.314Z,4.00
2019-03-12T14:02:43.978Z,3.89
2019-03-12T14:05:17.856Z,3.91
2019-03-12T14:07:50.476Z,3.88
2019-03-12T14:10:23.765Z,3.92
2019-03-12T14:12:56.665Z,3.90
2019-03-12T14:15:30.754Z,3.93
2019-03-12T14:18:03.986Z,3.95
2019-03-12T14:20:44.771Z,3.92
2019-03-12T14:23:20.737Z,3.91
2019-03-12T14:25:53.799Z,3.81
2019-03-12T14:28:26.526Z,3.85
2019-03-12T14:30:59.177Z,3.75
2019-03-12T14:33:33.199Z,3.70
2019-03-12T14:36:06.189Z,3.68
2019-03-12T14:38:38.692Z,3.76
2019-03-12T14:41:11.500Z,3.65
2019-03-12T14:43:47.004Z,3.60
2019-03-12T14:46:21.985Z,3.61
2019-03-12T14:48:56.425Z,3.63
2019-03-12T14:51:41.517Z,3.65
2019-03-12T14:54:14.000Z,3.61
2019-03-12T14:56:46.711Z,3.55
2019-03-12T14:59:19.258Z,3.54
2019-03-12T15:04:32.858Z,3.60
2019-03-12T15:07:05.399Z,3.61
2019-03-12T15:09:37.615Z,3.59
2019-03-12T15:12:11.911Z,3.59
2019-03-12T15:14:44.165Z,3.49
2019-03-12T15:17:16.495Z,3.48
2019-03-12T15:20:30.725Z,3.45
2019-03-12T15:23:03.438Z,3.47
2019-03-12T15:25:40.585Z,3.47
2019-03-12T15:58:52.756Z,3.32
2019-03-12T16:01:27.196Z,3.17
2019-03-12T16:03:59.667Z,3.15
2019-03-12T16:06:32.195Z,3.13
2019-03-12T16:09:08.953Z,3.12
2019-03-12T16:11:42.301Z,3.09
2019-03-12T16:14:14.842Z,3.10
2019-03-12T16:16:47.287Z,3.13
2019-03-12T16:19:20.210Z,3.10
2019-03-12T16:21:52.662Z,3.09
2019-03-12T16:24:25.092Z,3.07
2019-03-12T16:27:27.958Z,3.14
2019-03-12T16:30:30.585Z,3.17
2019-03-12T16:36:17.581Z,3.09
2019-03-12T16:38:49.931Z,3.17
2019-03-12T16:41:22.228Z,3.20
2019-03-12T16:43:56.089Z,3.30
2019-03-12T16:46:29.419Z,3.31
2019-03-12T16:49:02.013Z,3.34
2019-03-12T16:51:34.778Z,3.37
2019-03-12T16:54:07.409Z,3.37
2019-03-12T16:56:45.568Z,3.33
2019-03-12T16:59:17.534Z,3.33
2019-03-12T17:01:51.639Z,3.34
2019-03-12T17:04:24.928Z,3.29
2019-03-12T17:06:57.508Z,3.23
2019-03-12T17:09:31.418Z,3.22
2019-03-12T17:12:04.590Z,3.23
2019-03-12T17:14:39.072Z,3.23
2019-03-12T17:17:12.610Z,3.20
2019-03-12T17:19:45.419Z,3.20
2019-03-12T17:22:18.132Z,3.16
2019-03-12T17:24:52.488Z,3.19
2019-03-12T17:27:25.288Z,3.18
2019-03-12T17:29:58.533Z,3.05
2019-03-12T17:32:31.126Z,3.06
2019-03-12T17:35:05.394Z,3.03
2019-03-12T17:37:39.167Z,3.11
2019-03-12T17:40:17.774Z,3.10
2019-03-12T17:42:56.644Z,3.11
2019-03-12T17:45:31.844Z,3.05
2019-03-12T17:48:11.562Z,3.04
2019-03-12T17:50:52.272Z,3.00
2019-03-12T17:53:29.712Z,3.06
2019-03-12T17:56:05.092Z,3.02
2019-03-12T17:58:45.462Z,3.07
2019-03-12T18:01:30.238Z,3.05
2019-03-12T18:04:08.183Z,2.97
2019-03-12T18:06:49.122Z,2.90
2019-03-12T18:09:34.962Z,2.95
2019-03-12T18:12:19.092Z,2.98
2019-03-12T18:15:02.467Z,2.99
2019-03-12T18:17:45.352Z,2.99
2019-03-12T18:20:17.953Z,2.93
2019-03-12T18:22:50.752Z,2.93
2019-03-12T18:25:25.931Z,2.92
2019-03-12T18:27:59.976Z,2.92
2019-03-12T18:30:32.500Z,2.96
2019-03-12T18:33:04.808Z,2.98
2019-03-12T18:35:37.194Z,2.93
2019-03-12T18:38:09.474Z,2.91
2019-03-12T18:40:41.857Z,2.95
2019-03-12T18:43:15.117Z,2.89
2019-03-12T18:45:49.546Z,2.99
2019-03-12T18:48:22.038Z,2.96
2019-03-12T18:50:54.668Z,2.99
2019-03-12T18:53:27.249Z,2.90
2019-03-12T18:56:03.010Z,2.94
2019-03-12T18:58:35.370Z,2.94
2019-03-12T19:01:12.640Z,2.92
2019-03-12T19:03:45.441Z,2.94
2019-03-12T19:06:17.910Z,2.94
2019-03-12T19:08:50.433Z,2.95
2019-03-12T19:11:24.271Z,2.91
2019-03-12T19:13:56.674Z,2.92
2019-03-12T19:16:29.350Z,2.89
2019-03-12T19:19:01.911Z,2.97
2019-03-12T19:21:34.889Z,2.92
2019-03-12T19:24:08.484Z,2.91
2019-03-12T19:26:41.073Z,2.82
2019-03-12T19:29:13.582Z,2.84
2019-03-12T19:31:58.042Z,2.80
2019-03-12T19:34:36.804Z,2.90
2019-03-12T19:37:10.163Z,2.87
2019-03-12T19:39:43.022Z,2.90
2019-03-12T19:42:16.206Z,2.92
2019-03-12T19:44:49.271Z,2.88
2019-03-12T19:47:21.853Z,2.82
2019-03-12T19:49:54.433Z,2.82
2019-03-12T19:52:26.983Z,2.81
2019-03-12T19:54:59.582Z,2.78
2019-03-12T19:57:32.738Z,2.82
2019-03-12T20:00:06.285Z,2.81
2019-03-12T20:02:40.372Z,2.88
2019-03-12T20:05:13.492Z,2.88
2019-03-12T20:07:46.343Z,2.83
2019-03-12T20:11:01.063Z,2.83
2019-03-12T20:14:19.653Z,2.92
2019-03-12T20:17:27.234Z,2.90
2019-03-12T20:20:42.158Z,2.79
2019-03-12T20:23:59.001Z,2.70
2019-03-12T20:27:17.089Z,2.74
2019-03-12T20:30:29.091Z,2.86
2019-03-12T20:33:55.078Z,2.91
2019-03-12T20:37:06.389Z,2.95
2019-03-12T20:40:13.302Z,2.91
2019-03-12T20:43:21.786Z,2.89
2019-03-12T20:46:41.138Z,3.00
2019-03-12T20:49:45.831Z,3.04
2019-03-12T20:53:09.585Z,3.02
2019-03-12T20:56:26.586Z,3.07
2019-03-12T20:59:47.097Z,3.07
2019-03-12T21:02:55.349Z,2.97
2019-03-12T21:06:17.789Z,2.98
2019-03-12T21:09:22.263Z,3.05
2019-03-12T21:13:02.071Z,2.89
2019-03-12T21:16:18.898Z,3.00
2019-03-12T21:19:45.259Z,2.92
2019-03-12T21:22:52.313Z,2.81
2019-03-12T21:25:50.507Z,2.83
2019-03-12T21:28:53.273Z,2.85
2019-03-12T21:31:25.515Z,2.73
2019-03-12T21:33:58.029Z,2.63
2019-03-12T21:36:32.770Z,2.68
2019-03-12T21:39:06.489Z,2.77
2019-03-12T21:41:40.381Z,2.83
2019-03-12T21:44:13.822Z,2.78
2019-03-12T21:46:46.294Z,2.68
2019-03-12T21:49:18.654Z,2.70
2019-03-12T21:51:51.288Z,2.80
2019-03-12T21:54:23.612Z,2.73
2019-03-12T21:56:55.812Z,2.68
2019-03-12T21:59:28.132Z,2.80
2019-03-12T22:02:04.953Z,2.71
2019-03-12T22:04:37.237Z,2.68
2019-03-12T22:07:09.351Z,2.69
2019-03-12T22:09:41.769Z,2.66
2019-03-12T22:12:14.155Z,2.69
2019-03-12T22:14:46.495Z,2.64
2019-03-12T22:17:22.155Z,2.60
2019-03-12T22:19:54.467Z,2.66
2019-03-12T22:22:47.476Z,2.60
2019-03-12T22:25:19.743Z,2.51
2019-03-12T22:27:54.861Z,2.61
2019-03-12T22:30:30.174Z,2.60
2019-03-12T22:33:04.121Z,2.63
2019-03-12T22:35:36.573Z,2.63
2019-03-12T22:38:10.885Z,2.68
2019-03-12T22:40:44.925Z,2.67
2019-03-12T22:43:19.081Z,2.65
2019-03-12T22:45:53.121Z,2.65
2019-03-12T22:48:29.286Z,2.72
2019-03-12T22:51:03.913Z,2.73
2019-03-12T22:53:40.591Z,2.77
2019-03-12T22:56:15.435Z,2.80
2019-03-12T22:58:47.905Z,2.75
2019-03-12T23:01:38.321Z,2.79
2019-03-12T23:04:30.386Z,2.68
2019-03-12T23:07:22.655Z,2.61
2019-03-12T23:09:59.093Z,2.53
2019-03-12T23:12:35.117Z,2.54
2019-03-12T23:15:09.038Z,2.45
2019-03-12T23:17:45.363Z,2.32
2019-03-12T23:20:21.059Z,2.29
2019-03-12T23:22:55.476Z,2.29
2019-03-12T23:25:29.772Z,2.40
2019-03-12T23:28:04.337Z,2.33
2019-03-12T23:30:38.788Z,2.35
2019-03-12T23:33:13.430Z,2.44
2019-03-12T23:35:49.363Z,2.33
2019-03-12T23:38:23.653Z,2.29
2019-03-12T23:41:03.149Z,2.33
2019-03-12T23:43:35.466Z,2.31
2019-03-12T23:46:07.871Z,2.31
2019-03-12T23:48:41.975Z,2.25
2019-03-12T23:51:18.479Z,2.29
2019-03-12T23:53:52.771Z,2.34
2019-03-12T23:56:27.185Z,2.40
2019-03-12T23:59:01.850Z,2.39
